sensor_id;sensor_type;location;lat;lon;timestamp;P1;durP1;ratioP1;P2;durP2;ratioP2
73575;SDS011;61859;49.204;8.140;2023-04-24T00:01:29;1.13;;;0.60;;
73575;SDS011;61859;49.204;8.140;2023-04-24T00:03:56;1.40;;;1.20;;
73575;SDS011;61859;49.204;8.140;2023-04-24T00:06:24;1.67;;;0.93;;
73575;SDS011;61859;49.204;8.140;2023-04-24T00:08:58;3.10;;;0.87;;
73575;SDS011;61859;49.204;8.140;2023-04-24T00:11:25;1.97;;;1.07;;
73575;SDS011;61859;49.204;8.140;2023-04-24T00:13:51;0.70;;;0.70;;
73575;SDS011;61859;49.204;8.140;2023-04-24T00:16:17;1.60;;;1.00;;
73575;SDS011;61859;49.204;8.140;2023-04-24T00:18:43;1.33;;;0.80;;
73575;SDS011;61859;49.204;8.140;2023-04-24T00:21:10;1.13;;;0.77;;
73575;SDS011;61859;49.204;8.140;2023-04-24T00:23:35;1.17;;;1.07;;
73575;SDS011;61859;49.204;8.140;2023-04-24T00:26:02;1.13;;;0.90;;
73575;SDS011;61859;49.204;8.140;2023-04-24T00:28:28;1.03;;;0.97;;
73575;SDS011;61859;49.204;8.140;2023-04-24T00:30:54;1.67;;;0.83;;
73575;SDS011;61859;49.204;8.140;2023-04-24T00:33:20;1.63;;;1.07;;
73575;SDS011;61859;49.204;8.140;2023-04-24T00:35:46;1.10;;;0.97;;
73575;SDS011;61859;49.204;8.140;2023-04-24T00:38:11;1.17;;;0.93;;
73575;SDS011;61859;49.204;8.140;2023-04-24T00:40:37;0.80;;;0.80;;
73575;SDS011;61859;49.204;8.140;2023-04-24T00:43:03;3.17;;;1.00;;
73575;SDS011;61859;49.204;8.140;2023-04-24T00:45:29;4.27;;;1.40;;
73575;SDS011;61859;49.204;8.140;2023-04-24T00:47:56;1.60;;;0.90;;
73575;SDS011;61859;49.204;8.140;2023-04-24T00:50:23;1.30;;;1.10;;
73575;SDS011;61859;49.204;8.140;2023-04-24T00:52:49;3.17;;;1.03;;
73575;SDS011;61859;49.204;8.140;2023-04-24T00:55:15;1.40;;;1.10;;
73575;SDS011;61859;49.204;8.140;2023-04-24T00:57:42;3.27;;;1.30;;
73575;SDS011;61859;49.204;8.140;2023-04-24T01:00:08;1.20;;;1.10;;
73575;SDS011;61859;49.204;8.140;2023-04-24T01:02:38;3.23;;;1.20;;
73575;SDS011;61859;49.204;8.140;2023-04-24T01:05:06;2.07;;;1.27;;
73575;SDS011;61859;49.204;8.140;2023-04-24T01:07:32;2.77;;;1.37;;
73575;SDS011;61859;49.204;8.140;2023-04-24T01:09:58;1.57;;;1.23;;
73575;SDS011;61859;49.204;8.140;2023-04-24T01:12:24;2.17;;;1.50;;
73575;SDS011;61859;49.204;8.140;2023-04-24T01:14:50;1.67;;;1.20;;
73575;SDS011;61859;49.204;8.140;2023-04-24T01:17:16;3.50;;;1.40;;
73575;SDS011;61859;49.204;8.140;2023-04-24T01:19:42;1.43;;;1.33;;
73575;SDS011;61859;49.204;8.140;2023-04-24T01:22:13;2.03;;;1.20;;
73575;SDS011;61859;49.204;8.140;2023-04-24T01:24:40;2.67;;;1.60;;
73575;SDS011;61859;49.204;8.140;2023-04-24T01:27:06;1.70;;;1.60;;
73575;SDS011;61859;49.204;8.140;2023-04-24T01:29:32;4.03;;;1.50;;
73575;SDS011;61859;49.204;8.140;2023-04-24T01:31:58;2.93;;;1.40;;
73575;SDS011;61859;49.204;8.140;2023-04-24T01:34:24;1.50;;;1.33;;
73575;SDS011;61859;49.204;8.140;2023-04-24T01:36:50;5.43;;;1.53;;
73575;SDS011;61859;49.204;8.140;2023-04-24T01:39:16;1.33;;;1.23;;
73575;SDS011;61859;49.204;8.140;2023-04-24T01:41:42;1.20;;;1.10;;
73575;SDS011;61859;49.204;8.140;2023-04-24T01:44:09;5.03;;;1.37;;
73575;SDS011;61859;49.204;8.140;2023-04-24T01:46:35;1.63;;;1.33;;
73575;SDS011;61859;49.204;8.140;2023-04-24T01:49:01;1.07;;;0.90;;
73575;SDS011;61859;49.204;8.140;2023-04-24T01:51:28;3.33;;;1.20;;
73575;SDS011;61859;49.204;8.140;2023-04-24T01:53:54;1.00;;;1.00;;
73575;SDS011;61859;49.204;8.140;2023-04-24T01:56:21;1.97;;;0.97;;
73575;SDS011;61859;49.204;8.140;2023-04-24T01:58:47;2.43;;;1.30;;
73575;SDS011;61859;49.204;8.140;2023-04-24T02:01:17;2.07;;;1.00;;
73575;SDS011;61859;49.204;8.140;2023-04-24T02:03:43;2.93;;;1.50;;
73575;SDS011;61859;49.204;8.140;2023-04-24T02:06:09;1.80;;;0.90;;
73575;SDS011;61859;49.204;8.140;2023-04-24T02:08:35;2.10;;;1.27;;
73575;SDS011;61859;49.204;8.140;2023-04-24T02:11:01;1.53;;;1.20;;
73575;SDS011;61859;49.204;8.140;2023-04-24T02:13:27;1.20;;;1.10;;
73575;SDS011;61859;49.204;8.140;2023-04-24T02:15:53;2.53;;;1.00;;
73575;SDS011;61859;49.204;8.140;2023-04-24T02:18:19;1.67;;;1.07;;
73575;SDS011;61859;49.204;8.140;2023-04-24T02:20:47;1.60;;;1.50;;
73575;SDS011;61859;49.204;8.140;2023-04-24T02:23:13;2.13;;;1.10;;
73575;SDS011;61859;49.204;8.140;2023-04-24T02:25:39;1.63;;;1.43;;
73575;SDS011;61859;49.204;8.140;2023-04-24T02:28:05;4.30;;;1.60;;
73575;SDS011;61859;49.204;8.140;2023-04-24T02:30:31;2.50;;;1.40;;
73575;SDS011;61859;49.204;8.140;2023-04-24T02:32:57;1.30;;;1.13;;
73575;SDS011;61859;49.204;8.140;2023-04-24T02:35:23;2.87;;;1.10;;
73575;SDS011;61859;49.204;8.140;2023-04-24T02:37:49;5.33;;;1.50;;
73575;SDS011;61859;49.204;8.140;2023-04-24T02:40:15;1.97;;;1.33;;
73575;SDS011;61859;49.204;8.140;2023-04-24T02:42:41;1.10;;;1.10;;
73575;SDS011;61859;49.204;8.140;2023-04-24T02:45:07;2.03;;;1.20;;
73575;SDS011;61859;49.204;8.140;2023-04-24T02:47:33;1.30;;;1.20;;
73575;SDS011;61859;49.204;8.140;2023-04-24T02:49:59;2.00;;;1.40;;
73575;SDS011;61859;49.204;8.140;2023-04-24T02:52:25;2.20;;;1.47;;
73575;SDS011;61859;49.204;8.140;2023-04-24T02:54:51;2.73;;;1.60;;
73575;SDS011;61859;49.204;8.140;2023-04-24T02:57:18;1.50;;;1.40;;
73575;SDS011;61859;49.204;8.140;2023-04-24T02:59:44;1.37;;;1.27;;
73575;SDS011;61859;49.204;8.140;2023-04-24T03:02:10;0.70;;;0.70;;
73575;SDS011;61859;49.204;8.140;2023-04-24T03:04:36;1.40;;;1.30;;
73575;SDS011;61859;49.204;8.140;2023-04-24T03:07:02;0.80;;;0.80;;
73575;SDS011;61859;49.204;8.140;2023-04-24T03:09:29;1.77;;;1.37;;
73575;SDS011;61859;49.204;8.140;2023-04-24T03:11:55;1.70;;;1.60;;
73575;SDS011;61859;49.204;8.140;2023-04-24T03:14:23;1.17;;;1.13;;
73575;SDS011;61859;49.204;8.140;2023-04-24T03:16:49;2.40;;;1.43;;
73575;SDS011;61859;49.204;8.140;2023-04-24T03:19:15;2.27;;;1.60;;
73575;SDS011;61859;49.204;8.140;2023-04-24T03:21:41;1.47;;;1.37;;
73575;SDS011;61859;49.204;8.140;2023-04-24T03:24:07;1.63;;;1.47;;
73575;SDS011;61859;49.204;8.140;2023-04-24T03:26:34;2.50;;;1.50;;
73575;SDS011;61859;49.204;8.140;2023-04-24T03:29:00;2.93;;;1.30;;
73575;SDS011;61859;49.204;8.140;2023-04-24T03:31:26;1.77;;;1.67;;
73575;SDS011;61859;49.204;8.140;2023-04-24T03:33:52;1.67;;;1.43;;
73575;SDS011;61859;49.204;8.140;2023-04-24T03:36:18;1.70;;;1.60;;
73575;SDS011;61859;49.204;8.140;2023-04-24T03:38:44;3.03;;;1.60;;
73575;SDS011;61859;49.204;8.140;2023-04-24T03:41:10;1.90;;;1.50;;
73575;SDS011;61859;49.204;8.140;2023-04-24T03:43:36;1.60;;;1.50;;
73575;SDS011;61859;49.204;8.140;2023-04-24T03:46:03;2.83;;;1.70;;
73575;SDS011;61859;49.204;8.140;2023-04-24T03:48:29;1.77;;;1.60;;
73575;SDS011;61859;49.204;8.140;2023-04-24T03:50:55;5.00;;;1.43;;
73575;SDS011;61859;49.204;8.140;2023-04-24T03:53:21;2.30;;;2.10;;
73575;SDS011;61859;49.204;8.140;2023-04-24T03:55:47;2.27;;;1.93;;
73575;SDS011;61859;49.204;8.140;2023-04-24T03:58:13;6.13;;;2.47;;
73575;SDS011;61859;49.204;8.140;2023-04-24T04:00:39;4.37;;;2.33;;
73575;SDS011;61859;49.204;8.140;2023-04-24T04:03:05;3.00;;;2.37;;
73575;SDS011;61859;49.204;8.140;2023-04-24T04:05:31;2.27;;;2.07;;
73575;SDS011;61859;49.204;8.140;2023-04-24T04:07:57;2.40;;;2.20;;
73575;SDS011;61859;49.204;8.140;2023-04-24T04:10:23;5.87;;;2.17;;
73575;SDS011;61859;49.204;8.140;2023-04-24T04:12:49;2.27;;;2.07;;
73575;SDS011;61859;49.204;8.140;2023-04-24T04:15:15;2.43;;;2.00;;
73575;SDS011;61859;49.204;8.140;2023-04-24T04:17:41;2.57;;;1.90;;
73575;SDS011;61859;49.204;8.140;2023-04-24T04:20:07;2.60;;;2.20;;
73575;SDS011;61859;49.204;8.140;2023-04-24T04:22:35;2.57;;;2.37;;
73575;SDS011;61859;49.204;8.140;2023-04-24T04:25:01;4.93;;;2.60;;
73575;SDS011;61859;49.204;8.140;2023-04-24T04:27:28;3.10;;;2.80;;
73575;SDS011;61859;49.204;8.140;2023-04-24T04:29:56;5.23;;;3.27;;
73575;SDS011;61859;49.204;8.140;2023-04-24T04:32:22;3.30;;;2.57;;
73575;SDS011;61859;49.204;8.140;2023-04-24T04:34:48;3.30;;;2.23;;
73575;SDS011;61859;49.204;8.140;2023-04-24T04:37:18;2.20;;;2.00;;
73575;SDS011;61859;49.204;8.140;2023-04-24T04:39:44;3.90;;;2.70;;
73575;SDS011;61859;49.204;8.140;2023-04-24T04:42:10;3.97;;;2.80;;
73575;SDS011;61859;49.204;8.140;2023-04-24T04:44:36;2.80;;;2.50;;
73575;SDS011;61859;49.204;8.140;2023-04-24T04:47:03;2.77;;;2.57;;
73575;SDS011;61859;49.204;8.140;2023-04-24T04:49:30;3.47;;;2.47;;
73575;SDS011;61859;49.204;8.140;2023-04-24T04:51:56;2.47;;;2.23;;
73575;SDS011;61859;49.204;8.140;2023-04-24T04:54:22;2.77;;;2.50;;
73575;SDS011;61859;49.204;8.140;2023-04-24T04:56:51;3.20;;;2.70;;
73575;SDS011;61859;49.204;8.140;2023-04-24T04:59:17;2.90;;;2.30;;
73575;SDS011;61859;49.204;8.140;2023-04-24T05:01:43;3.43;;;2.47;;
73575;SDS011;61859;49.204;8.140;2023-04-24T05:04:09;3.00;;;2.50;;
73575;SDS011;61859;49.204;8.140;2023-04-24T05:06:35;3.77;;;2.60;;
73575;SDS011;61859;49.204;8.140;2023-04-24T05:09:01;2.60;;;2.40;;
73575;SDS011;61859;49.204;8.140;2023-04-24T05:11:28;3.50;;;2.73;;
73575;SDS011;61859;49.204;8.140;2023-04-24T05:13:54;6.17;;;2.10;;
73575;SDS011;61859;49.204;8.140;2023-04-24T05:16:20;2.70;;;2.50;;
73575;SDS011;61859;49.204;8.140;2023-04-24T05:18:46;2.60;;;2.23;;
73575;SDS011;61859;49.204;8.140;2023-04-24T05:21:12;5.27;;;2.33;;
73575;SDS011;61859;49.204;8.140;2023-04-24T05:23:38;2.00;;;1.90;;
73575;SDS011;61859;49.204;8.140;2023-04-24T05:26:04;2.10;;;1.80;;
73575;SDS011;61859;49.204;8.140;2023-04-24T05:28:31;2.63;;;2.30;;
73575;SDS011;61859;49.204;8.140;2023-04-24T05:30:57;3.37;;;2.23;;
73575;SDS011;61859;49.204;8.140;2023-04-24T05:33:24;2.47;;;2.27;;
73575;SDS011;61859;49.204;8.140;2023-04-24T05:35:50;2.33;;;2.10;;
73575;SDS011;61859;49.204;8.140;2023-04-24T05:38:16;3.50;;;2.47;;
73575;SDS011;61859;49.204;8.140;2023-04-24T05:40:46;2.57;;;2.20;;
73575;SDS011;61859;49.204;8.140;2023-04-24T05:43:12;4.83;;;2.80;;
73575;SDS011;61859;49.204;8.140;2023-04-24T05:45:38;3.10;;;2.80;;
73575;SDS011;61859;49.204;8.140;2023-04-24T05:48:04;2.77;;;2.57;;
73575;SDS011;61859;49.204;8.140;2023-04-24T05:50:30;2.57;;;2.37;;
73575;SDS011;61859;49.204;8.140;2023-04-24T05:52:56;4.97;;;3.13;;
73575;SDS011;61859;49.204;8.140;2023-04-24T05:55:23;2.90;;;2.63;;
73575;SDS011;61859;49.204;8.140;2023-04-24T05:57:50;6.83;;;2.77;;
73575;SDS011;61859;49.204;8.140;2023-04-24T06:00:16;4.47;;;2.90;;
73575;SDS011;61859;49.204;8.140;2023-04-24T06:02:44;2.50;;;2.30;;
73575;SDS011;61859;49.204;8.140;2023-04-24T06:05:10;2.00;;;1.80;;
73575;SDS011;61859;49.204;8.140;2023-04-24T06:07:36;3.87;;;3.10;;
73575;SDS011;61859;49.204;8.140;2023-04-24T06:10:02;3.60;;;2.40;;
73575;SDS011;61859;49.204;8.140;2023-04-24T06:12:28;2.80;;;2.50;;
73575;SDS011;61859;49.204;8.140;2023-04-24T06:14:54;3.17;;;2.57;;
73575;SDS011;61859;49.204;8.140;2023-04-24T06:17:20;3.20;;;2.23;;
73575;SDS011;61859;49.204;8.140;2023-04-24T06:19:46;3.37;;;2.40;;
73575;SDS011;61859;49.204;8.140;2023-04-24T06:22:12;2.37;;;2.13;;
73575;SDS011;61859;49.204;8.140;2023-04-24T06:24:41;2.10;;;1.90;;
73575;SDS011;61859;49.204;8.140;2023-04-24T06:27:07;2.23;;;2.03;;
73575;SDS011;61859;49.204;8.140;2023-04-24T06:29:33;1.90;;;1.57;;
73575;SDS011;61859;49.204;8.140;2023-04-24T06:31:59;1.63;;;1.53;;
73575;SDS011;61859;49.204;8.140;2023-04-24T06:34:25;3.60;;;1.40;;
73575;SDS011;61859;49.204;8.140;2023-04-24T06:36:51;1.70;;;1.60;;
73575;SDS011;61859;49.204;8.140;2023-04-24T06:39:17;1.53;;;1.43;;
73575;SDS011;61859;49.204;8.140;2023-04-24T06:41:43;2.60;;;1.10;;
73575;SDS011;61859;49.204;8.140;2023-04-24T06:44:09;1.23;;;0.87;;
73575;SDS011;61859;49.204;8.140;2023-04-24T06:46:35;2.63;;;1.50;;
73575;SDS011;61859;49.204;8.140;2023-04-24T06:49:01;1.20;;;0.80;;
73575;SDS011;61859;49.204;8.140;2023-04-24T06:51:27;0.93;;;0.93;;
73575;SDS011;61859;49.204;8.140;2023-04-24T06:53:53;2.03;;;1.43;;
73575;SDS011;61859;49.204;8.140;2023-04-24T06:56:21;1.43;;;1.33;;
73575;SDS011;61859;49.204;8.140;2023-04-24T06:58:47;2.83;;;1.53;;
73575;SDS011;61859;49.204;8.140;2023-04-24T07:01:13;1.63;;;1.53;;
73575;SDS011;61859;49.204;8.140;2023-04-24T07:03:39;2.30;;;1.60;;
73575;SDS011;61859;49.204;8.140;2023-04-24T07:06:06;2.30;;;1.60;;
73575;SDS011;61859;49.204;8.140;2023-04-24T07:08:32;2.03;;;1.93;;
73575;SDS011;61859;49.204;8.140;2023-04-24T07:10:58;2.80;;;1.80;;
73575;SDS011;61859;49.204;8.140;2023-04-24T07:13:24;1.50;;;1.40;;
73575;SDS011;61859;49.204;8.140;2023-04-24T07:15:51;1.77;;;1.67;;
73575;SDS011;61859;49.204;8.140;2023-04-24T07:18:19;2.80;;;2.00;;
73575;SDS011;61859;49.204;8.140;2023-04-24T07:20:44;1.50;;;1.40;;
73575;SDS011;61859;49.204;8.140;2023-04-24T07:23:10;3.37;;;2.03;;
73575;SDS011;61859;49.204;8.140;2023-04-24T07:25:36;1.83;;;1.33;;
73575;SDS011;61859;49.204;8.140;2023-04-24T07:28:03;2.73;;;1.70;;
73575;SDS011;61859;49.204;8.140;2023-04-24T07:30:29;3.37;;;1.90;;
73575;SDS011;61859;49.204;8.140;2023-04-24T07:32:57;1.60;;;1.50;;
73575;SDS011;61859;49.204;8.140;2023-04-24T07:35:23;1.57;;;1.30;;
73575;SDS011;61859;49.204;8.140;2023-04-24T07:37:50;2.07;;;1.50;;
73575;SDS011;61859;49.204;8.140;2023-04-24T07:40:16;2.47;;;1.43;;
73575;SDS011;61859;49.204;8.140;2023-04-24T07:42:42;2.20;;;1.47;;
73575;SDS011;61859;49.204;8.140;2023-04-24T07:45:08;2.13;;;1.20;;
73575;SDS011;61859;49.204;8.140;2023-04-24T07:47:34;2.30;;;1.30;;
73575;SDS011;61859;49.204;8.140;2023-04-24T07:50:02;1.17;;;1.10;;
73575;SDS011;61859;49.204;8.140;2023-04-24T07:52:28;0.77;;;0.77;;
73575;SDS011;61859;49.204;8.140;2023-04-24T07:54:55;0.80;;;0.80;;
73575;SDS011;61859;49.204;8.140;2023-04-24T07:57:25;1.60;;;1.50;;
73575;SDS011;61859;49.204;8.140;2023-04-24T07:59:51;1.87;;;1.37;;
73575;SDS011;61859;49.204;8.140;2023-04-24T08:02:17;1.60;;;1.10;;
73575;SDS011;61859;49.204;8.140;2023-04-24T08:04:43;1.27;;;1.10;;
73575;SDS011;61859;49.204;8.140;2023-04-24T08:07:09;1.43;;;1.10;;
73575;SDS011;61859;49.204;8.140;2023-04-24T08:09:35;1.23;;;1.10;;
73575;SDS011;61859;49.204;8.140;2023-04-24T08:12:00;2.47;;;1.00;;
73575;SDS011;61859;49.204;8.140;2023-04-24T08:14:27;1.30;;;1.00;;
73575;SDS011;61859;49.204;8.140;2023-04-24T08:16:54;0.83;;;0.83;;
73575;SDS011;61859;49.204;8.140;2023-04-24T08:19:21;0.83;;;0.83;;
73575;SDS011;61859;49.204;8.140;2023-04-24T08:21:47;2.03;;;0.93;;
73575;SDS011;61859;49.204;8.140;2023-04-24T08:24:13;0.57;;;0.57;;
73575;SDS011;61859;49.204;8.140;2023-04-24T08:26:39;0.70;;;0.70;;
73575;SDS011;61859;49.204;8.140;2023-04-24T08:29:05;0.77;;;0.77;;
73575;SDS011;61859;49.204;8.140;2023-04-24T08:31:31;2.37;;;0.60;;
73575;SDS011;61859;49.204;8.140;2023-04-24T08:33:57;2.10;;;0.60;;
73575;SDS011;61859;49.204;8.140;2023-04-24T08:36:24;1.37;;;1.27;;
73575;SDS011;61859;49.204;8.140;2023-04-24T08:38:51;1.00;;;0.97;;
73575;SDS011;61859;49.204;8.140;2023-04-24T08:41:17;0.60;;;0.60;;
73575;SDS011;61859;49.204;8.140;2023-04-24T08:43:43;2.40;;;1.07;;
73575;SDS011;61859;49.204;8.140;2023-04-24T08:46:09;1.13;;;1.07;;
73575;SDS011;61859;49.204;8.140;2023-04-24T08:48:36;1.63;;;1.23;;
73575;SDS011;61859;49.204;8.140;2023-04-24T08:51:02;0.90;;;0.90;;
73575;SDS011;61859;49.204;8.140;2023-04-24T08:53:31;1.73;;;1.40;;
73575;SDS011;61859;49.204;8.140;2023-04-24T08:55:58;1.83;;;1.27;;
73575;SDS011;61859;49.204;8.140;2023-04-24T08:58:26;2.27;;;1.40;;
73575;SDS011;61859;49.204;8.140;2023-04-24T09:00:56;1.80;;;1.37;;
73575;SDS011;61859;49.204;8.140;2023-04-24T09:03:23;1.40;;;1.30;;
73575;SDS011;61859;49.204;8.140;2023-04-24T09:05:49;2.00;;;1.00;;
73575;SDS011;61859;49.204;8.140;2023-04-24T09:08:19;3.57;;;1.90;;
73575;SDS011;61859;49.204;8.140;2023-04-24T09:10:45;1.60;;;1.50;;
73575;SDS011;61859;49.204;8.140;2023-04-24T09:13:11;2.70;;;2.07;;
73575;SDS011;61859;49.204;8.140;2023-04-24T09:15:38;2.27;;;2.03;;
73575;SDS011;61859;49.204;8.140;2023-04-24T09:18:04;2.53;;;1.77;;
73575;SDS011;61859;49.204;8.140;2023-04-24T09:20:30;2.70;;;1.70;;
73575;SDS011;61859;49.204;8.140;2023-04-24T09:22:57;2.10;;;1.73;;
73575;SDS011;61859;49.204;8.140;2023-04-24T09:25:25;4.07;;;1.90;;
73575;SDS011;61859;49.204;8.140;2023-04-24T09:27:59;4.03;;;2.20;;
73575;SDS011;61859;49.204;8.140;2023-04-24T09:30:25;3.17;;;1.83;;
73575;SDS011;61859;49.204;8.140;2023-04-24T09:33:09;2.17;;;1.93;;
73575;SDS011;61859;49.204;8.140;2023-04-24T09:35:35;2.03;;;1.60;;
73575;SDS011;61859;49.204;8.140;2023-04-24T09:38:01;2.80;;;2.17;;
73575;SDS011;61859;49.204;8.140;2023-04-24T09:40:27;1.50;;;1.37;;
73575;SDS011;61859;49.204;8.140;2023-04-24T09:42:56;1.60;;;1.50;;
73575;SDS011;61859;49.204;8.140;2023-04-24T09:45:34;1.20;;;1.10;;
73575;SDS011;61859;49.204;8.140;2023-04-24T09:48:01;3.67;;;1.43;;
73575;SDS011;61859;49.204;8.140;2023-04-24T09:50:29;4.00;;;1.77;;
73575;SDS011;61859;49.204;8.140;2023-04-24T09:52:57;2.17;;;1.43;;
73575;SDS011;61859;49.204;8.140;2023-04-24T09:55:24;2.10;;;1.97;;
73575;SDS011;61859;49.204;8.140;2023-04-24T09:58:00;2.47;;;1.73;;
73575;SDS011;61859;49.204;8.140;2023-04-24T10:00:30;5.37;;;2.77;;
73575;SDS011;61859;49.204;8.140;2023-04-24T10:02:57;4.93;;;1.77;;
73575;SDS011;61859;49.204;8.140;2023-04-24T10:05:24;2.20;;;2.00;;
73575;SDS011;61859;49.204;8.140;2023-04-24T10:07:50;2.30;;;1.87;;
73575;SDS011;61859;49.204;8.140;2023-04-24T10:10:16;5.57;;;3.30;;
73575;SDS011;61859;49.204;8.140;2023-04-24T10:12:42;3.00;;;2.13;;
73575;SDS011;61859;49.204;8.140;2023-04-24T10:15:09;2.00;;;1.83;;
73575;SDS011;61859;49.204;8.140;2023-04-24T10:17:37;2.07;;;1.80;;
73575;SDS011;61859;49.204;8.140;2023-04-24T10:20:03;4.30;;;1.90;;
73575;SDS011;61859;49.204;8.140;2023-04-24T10:22:31;2.60;;;2.00;;
73575;SDS011;61859;49.204;8.140;2023-04-24T10:24:57;4.77;;;2.00;;
73575;SDS011;61859;49.204;8.140;2023-04-24T10:27:24;2.20;;;1.67;;
73575;SDS011;61859;49.204;8.140;2023-04-24T10:29:52;2.10;;;1.90;;
73575;SDS011;61859;49.204;8.140;2023-04-24T10:32:18;2.07;;;1.80;;
73575;SDS011;61859;49.204;8.140;2023-04-24T10:34:44;2.03;;;1.80;;
73575;SDS011;61859;49.204;8.140;2023-04-24T10:37:10;3.07;;;2.17;;
73575;SDS011;61859;49.204;8.140;2023-04-24T10:39:38;3.45;;;2.05;;
73575;SDS011;61859;49.204;8.140;2023-04-24T10:42:15;3.60;;;2.45;;
73575;SDS011;61859;49.204;8.140;2023-04-24T10:44:41;2.07;;;1.73;;
73575;SDS011;61859;49.204;8.140;2023-04-24T10:47:12;2.30;;;2.03;;
73575;SDS011;61859;49.204;8.140;2023-04-24T10:49:38;3.33;;;1.97;;
73575;SDS011;61859;49.204;8.140;2023-04-24T10:52:04;2.40;;;2.20;;
73575;SDS011;61859;49.204;8.140;2023-04-24T10:54:41;1.57;;;1.47;;
73575;SDS011;61859;49.204;8.140;2023-04-24T10:59:50;3.28;;;2.47;;
73575;SDS011;61859;49.204;8.140;2023-04-24T11:02:16;2.10;;;1.90;;
73575;SDS011;61859;49.204;8.140;2023-04-24T11:04:43;3.83;;;2.20;;
73575;SDS011;61859;49.204;8.140;2023-04-24T11:07:10;1.87;;;1.77;;
73575;SDS011;61859;49.204;8.140;2023-04-24T11:09:36;2.23;;;2.03;;
73575;SDS011;61859;49.204;8.140;2023-04-24T11:12:02;2.53;;;1.83;;
73575;SDS011;61859;49.204;8.140;2023-04-24T11:14:31;3.67;;;2.33;;
73575;SDS011;61859;49.204;8.140;2023-04-24T11:17:33;3.70;;;2.23;;
73575;SDS011;61859;49.204;8.140;2023-04-24T11:22:30;2.07;;;1.87;;
73575;SDS011;61859;49.204;8.140;2023-04-24T11:24:59;4.20;;;2.53;;
73575;SDS011;61859;49.204;8.140;2023-04-24T11:27:32;4.47;;;2.57;;
73575;SDS011;61859;49.204;8.140;2023-04-24T11:30:01;3.40;;;1.90;;
73575;SDS011;61859;49.204;8.140;2023-04-24T11:35:01;3.87;;;2.07;;
73575;SDS011;61859;49.204;8.140;2023-04-24T11:40:01;1.77;;;1.67;;
73575;SDS011;61859;49.204;8.140;2023-04-24T11:42:27;2.00;;;1.43;;
73575;SDS011;61859;49.204;8.140;2023-04-24T11:44:54;1.27;;;1.17;;
73575;SDS011;61859;49.204;8.140;2023-04-24T11:47:30;1.70;;;1.60;;
73575;SDS011;61859;49.204;8.140;2023-04-24T11:49:58;3.33;;;2.40;;
73575;SDS011;61859;49.204;8.140;2023-04-24T11:52:25;7.17;;;2.33;;
73575;SDS011;61859;49.204;8.140;2023-04-24T11:54:51;3.13;;;1.70;;
73575;SDS011;61859;49.204;8.140;2023-04-24T11:57:20;2.73;;;2.07;;
73575;SDS011;61859;49.204;8.140;2023-04-24T11:59:46;2.37;;;2.13;;
73575;SDS011;61859;49.204;8.140;2023-04-24T12:02:22;3.13;;;2.07;;
73575;SDS011;61859;49.204;8.140;2023-04-24T12:04:48;2.60;;;2.13;;
73575;SDS011;61859;49.204;8.140;2023-04-24T12:07:14;2.53;;;2.30;;
73575;SDS011;61859;49.204;8.140;2023-04-24T12:09:41;3.10;;;1.93;;
73575;SDS011;61859;49.204;8.140;2023-04-24T12:12:07;4.20;;;2.53;;
73575;SDS011;61859;49.204;8.140;2023-04-24T12:14:41;2.90;;;2.20;;
73575;SDS011;61859;49.204;8.140;2023-04-24T12:17:07;3.80;;;2.30;;
73575;SDS011;61859;49.204;8.140;2023-04-24T12:19:33;3.33;;;2.00;;
73575;SDS011;61859;49.204;8.140;2023-04-24T12:22:00;1.80;;;1.70;;
73575;SDS011;61859;49.204;8.140;2023-04-24T12:24:26;2.37;;;1.77;;
73575;SDS011;61859;49.204;8.140;2023-04-24T12:26:52;2.13;;;1.93;;
73575;SDS011;61859;49.204;8.140;2023-04-24T12:29:21;3.40;;;2.50;;
73575;SDS011;61859;49.204;8.140;2023-04-24T12:31:47;2.00;;;1.30;;
73575;SDS011;61859;49.204;8.140;2023-04-24T12:34:20;2.13;;;1.47;;
73575;SDS011;61859;49.204;8.140;2023-04-24T12:36:46;3.60;;;2.40;;
73575;SDS011;61859;49.204;8.140;2023-04-24T12:39:18;2.27;;;2.07;;
73575;SDS011;61859;49.204;8.140;2023-04-24T12:41:54;5.77;;;2.17;;
73575;SDS011;61859;49.204;8.140;2023-04-24T12:44:34;4.60;;;2.00;;
73575;SDS011;61859;49.204;8.140;2023-04-24T12:47:01;3.00;;;1.97;;
73575;SDS011;61859;49.204;8.140;2023-04-24T12:49:28;4.23;;;1.60;;
73575;SDS011;61859;49.204;8.140;2023-04-24T12:51:53;5.33;;;1.63;;
73575;SDS011;61859;49.204;8.140;2023-04-24T12:54:20;2.03;;;1.70;;
73575;SDS011;61859;49.204;8.140;2023-04-24T12:56:45;4.23;;;1.80;;
73575;SDS011;61859;49.204;8.140;2023-04-24T12:59:11;2.13;;;1.50;;
73575;SDS011;61859;49.204;8.140;2023-04-24T13:01:37;2.53;;;1.50;;
73575;SDS011;61859;49.204;8.140;2023-04-24T13:04:04;1.63;;;1.53;;
73575;SDS011;61859;49.204;8.140;2023-04-24T13:06:30;1.80;;;1.70;;
73575;SDS011;61859;49.204;8.140;2023-04-24T13:08:57;1.50;;;1.40;;
73575;SDS011;61859;49.204;8.140;2023-04-24T13:11:23;2.60;;;1.57;;
73575;SDS011;61859;49.204;8.140;2023-04-24T13:13:49;3.20;;;1.73;;
73575;SDS011;61859;49.204;8.140;2023-04-24T13:16:15;1.93;;;1.70;;
73575;SDS011;61859;49.204;8.140;2023-04-24T13:18:41;3.10;;;1.60;;
73575;SDS011;61859;49.204;8.140;2023-04-24T13:21:07;4.53;;;2.80;;
73575;SDS011;61859;49.204;8.140;2023-04-24T13:23:33;2.13;;;1.80;;
73575;SDS011;61859;49.204;8.140;2023-04-24T13:25:59;1.80;;;1.70;;
73575;SDS011;61859;49.204;8.140;2023-04-24T13:28:26;4.10;;;2.03;;
73575;SDS011;61859;49.204;8.140;2023-04-24T13:30:52;4.00;;;1.70;;
73575;SDS011;61859;49.204;8.140;2023-04-24T13:33:18;2.67;;;2.17;;
73575;SDS011;61859;49.204;8.140;2023-04-24T13:35:44;3.17;;;2.03;;
73575;SDS011;61859;49.204;8.140;2023-04-24T13:38:10;3.20;;;1.90;;
73575;SDS011;61859;49.204;8.140;2023-04-24T13:40:36;2.97;;;1.87;;
73575;SDS011;61859;49.204;8.140;2023-04-24T13:43:02;4.93;;;2.00;;
73575;SDS011;61859;49.204;8.140;2023-04-24T13:45:28;3.60;;;1.97;;
73575;SDS011;61859;49.204;8.140;2023-04-24T13:47:54;2.10;;;1.83;;
73575;SDS011;61859;49.204;8.140;2023-04-24T13:50:21;1.73;;;1.60;;
73575;SDS011;61859;49.204;8.140;2023-04-24T13:52:47;1.63;;;1.53;;
73575;SDS011;61859;49.204;8.140;2023-04-24T13:55:14;3.30;;;1.87;;
73575;SDS011;61859;49.204;8.140;2023-04-24T13:57:40;3.73;;;2.17;;
73575;SDS011;61859;49.204;8.140;2023-04-24T14:00:06;2.07;;;1.70;;
73575;SDS011;61859;49.204;8.140;2023-04-24T14:02:35;2.57;;;1.93;;
73575;SDS011;61859;49.204;8.140;2023-04-24T14:05:01;2.70;;;1.87;;
73575;SDS011;61859;49.204;8.140;2023-04-24T14:07:28;1.50;;;1.40;;
73575;SDS011;61859;49.204;8.140;2023-04-24T14:09:54;2.30;;;1.60;;
73575;SDS011;61859;49.204;8.140;2023-04-24T14:12:20;2.43;;;1.80;;
73575;SDS011;61859;49.204;8.140;2023-04-24T14:14:46;2.60;;;1.57;;
73575;SDS011;61859;49.204;8.140;2023-04-24T14:17:13;2.07;;;1.40;;
73575;SDS011;61859;49.204;8.140;2023-04-24T14:19:39;1.83;;;1.50;;
73575;SDS011;61859;49.204;8.140;2023-04-24T14:22:05;1.93;;;1.43;;
73575;SDS011;61859;49.204;8.140;2023-04-24T14:24:31;1.90;;;1.70;;
73575;SDS011;61859;49.204;8.140;2023-04-24T14:26:57;1.63;;;1.43;;
73575;SDS011;61859;49.204;8.140;2023-04-24T14:29:23;3.20;;;1.90;;
73575;SDS011;61859;49.204;8.140;2023-04-24T14:31:50;2.87;;;1.73;;
73575;SDS011;61859;49.204;8.140;2023-04-24T14:34:16;2.50;;;1.97;;
73575;SDS011;61859;49.204;8.140;2023-04-24T14:36:43;2.13;;;1.83;;
73575;SDS011;61859;49.204;8.140;2023-04-24T14:39:09;2.90;;;1.97;;
73575;SDS011;61859;49.204;8.140;2023-04-24T14:41:35;4.43;;;2.00;;
73575;SDS011;61859;49.204;8.140;2023-04-24T14:44:02;3.50;;;2.13;;
73575;SDS011;61859;49.204;8.140;2023-04-24T14:46:29;2.27;;;2.00;;
73575;SDS011;61859;49.204;8.140;2023-04-24T14:48:55;1.90;;;1.80;;
73575;SDS011;61859;49.204;8.140;2023-04-24T14:51:21;1.80;;;1.70;;
73575;SDS011;61859;49.204;8.140;2023-04-24T14:53:47;2.10;;;1.90;;
73575;SDS011;61859;49.204;8.140;2023-04-24T14:56:13;2.23;;;1.63;;